Time;durP1;ratioP1;P1;durP2;ratioP2;P2;SDS_P1;SDS_P2;PMS_P1;PMS_P2;Temp;Humidity;BMP_temperature;BMP_pressure;BME280_temperature;BME280_humidity;BME280_pressure;Samples;Min_cycle;Max_cycle;Signal;HPM_P1;HPM_P2
2022/05/19 00:01:27;;;;;;;5.88;2.80;;;15.40;65.50;;;;;;4996062;28;20038;-80
2022/05/19 00:03:57;;;;;;;3.88;2.40;;;15.30;65.30;;;;;;5012088;28;20046;-78
2022/05/19 00:06:24;;;;;;;5.32;2.88;;;15.40;65.80;;;;;;5012192;28;20100;-78
2022/05/19 00:08:51;;;;;;;4.22;2.60;;;15.30;66.30;;;;;;5007396;28;20058;-78
2022/05/19 00:11:25;;;;;;;8.48;3.03;;;15.20;66.70;;;;;;5012219;28;20453;-79
2022/05/19 00:13:53;;;;;;;5.55;2.75;;;15.10;67.10;;;;;;5011139;28;20085;-78
2022/05/19 00:16:20;;;;;;;4.82;2.55;;;14.80;69.00;;;;;;5011788;28;20042;-81
2022/05/19 00:18:48;;;;;;;7.38;2.67;;;14.80;69.30;;;;;;5010714;28;20038;-82
2022/05/19 00:21:15;;;;;;;8.10;3.03;;;14.80;69.20;;;;;;5012282;28;20112;-82
2022/05/19 00:23:43;;;;;;;5.18;3.05;;;14.80;68.90;;;;;;5011198;28;20140;-82
2022/05/19 00:26:13;;;;;;;5.25;3.03;;;14.90;67.30;;;;;;5012501;28;20053;-80
2022/05/19 00:28:40;;;;;;;4.80;3.00;;;14.90;67.90;;;;;;5009489;28;20046;-82
2022/05/19 00:31:08;;;;;;;9.77;3.20;;;14.60;68.50;;;;;;5010875;28;20407;-80
2022/05/19 00:33:36;;;;;;;13.35;4.15;;;14.60;67.20;;;;;;5010605;28;20045;-80
2022/05/19 00:36:13;;;;;;;7.55;3.00;;;14.70;66.00;;;;;;5011914;28;20065;-78
2022/05/19 00:38:41;;;;;;;7.57;2.80;;;14.40;64.60;;;;;;5012063;28;20100;-80
2022/05/19 00:41:10;;;;;;;5.68;2.90;;;14.40;64.40;;;;;;5011817;28;20387;-80
2022/05/19 00:43:41;;;;;;;8.60;3.80;;;14.40;64.50;;;;;;5011748;28;20050;-80
2022/05/19 00:46:15;;;;;;;7.05;2.88;;;14.50;66.60;;;;;;5011301;28;20456;-80
2022/05/19 00:48:57;;;;;;;7.78;3.28;;;14.50;66.20;;;;;;5011905;28;20384;-78
2022/05/19 00:51:48;;;;;;;7.22;3.65;;;14.50;65.00;;;;;;5012015;28;20466;-79
2022/05/19 00:54:23;;;;;;;10.60;3.47;;;14.50;64.20;;;;;;5011774;28;20121;-79
2022/05/19 00:57:01;;;;;;;4.25;2.90;;;14.40;64.30;;;;;;5012293;28;20065;-82
2022/05/19 00:59:48;;;;;;;4.85;2.60;;;13.70;66.00;;;;;;5010942;28;20060;-80
2022/05/19 01:02:19;;;;;;;8.32;2.75;;;14.00;65.90;;;;;;5011755;28;20065;-80
2022/05/19 01:05:10;;;;;;;8.85;3.00;;;13.80;66.20;;;;;;5010515;28;20041;-79
2022/05/19 01:07:46;;;;;;;3.90;2.65;;;13.30;67.70;;;;;;5011781;28;20080;-79
2022/05/19 01:10:14;;;;;;;9.63;2.92;;;13.00;67.30;;;;;;5011862;28;20085;-79
2022/05/19 01:12:48;;;;;;;5.43;2.80;;;13.10;68.30;;;;;;5009807;28;20100;-80
2022/05/19 01:15:16;;;;;;;4.30;2.83;;;13.30;67.50;;;;;;5011832;28;20112;-78
2022/05/19 01:17:44;;;;;;;4.35;3.00;;;13.30;67.50;;;;;;5010354;28;20400;-78
2022/05/19 01:20:23;;;;;;;5.38;2.88;;;12.70;68.20;;;;;;5011455;28;20053;-78
2022/05/19 01:22:54;;;;;;;4.85;3.03;;;12.60;68.70;;;;;;5010171;28;20054;-78
2022/05/19 01:26:19;;;;;;;5.55;2.90;;;13.10;67.90;;;;;;5011807;28;20454;-78
2022/05/19 01:28:46;;;;;;;4.70;2.75;;;13.30;67.00;;;;;;4988668;28;20115;-78
2022/05/19 01:31:36;;;;;;;6.75;2.90;;;13.30;67.10;;;;;;5010169;28;20057;-78
2022/05/19 01:34:06;;;;;;;4.78;3.47;;;12.60;67.70;;;;;;5011996;28;20119;-78
2022/05/19 01:36:34;;;;;;;4.43;2.90;;;12.40;68.60;;;;;;5011820;28;20156;-78
2022/05/19 01:39:23;;;;;;;9.30;3.03;;;12.30;69.60;;;;;;5010616;28;20573;-78
2022/05/19 01:41:56;;;;;;;5.68;2.85;;;12.40;69.90;;;;;;5013357;28;20068;-78
2022/05/19 01:44:34;;;;;;;4.30;3.08;;;12.50;69.70;;;;;;5014956;28;20073;-78
2022/05/19 01:47:34;;;;;;;9.45;3.05;;;12.40;70.00;;;;;;5014734;28;20125;-79
2022/05/19 01:50:28;;;;;;;8.02;3.72;;;12.30;70.50;;;;;;5013736;28;20050;-80
2022/05/19 01:53:19;;;;;;;6.00;3.30;;;12.90;70.00;;;;;;5013564;28;20045;-78
2022/05/19 01:56:05;;;;;;;;;;;13.20;68.60;;;;;;5013781;28;20545;-79
2022/05/19 01:58:56;;;;;;;4.20;2.78;;;13.40;68.20;;;;;;5014138;28;19921;-78
2022/05/19 02:01:25;;;;;;;;;;;13.30;68.90;;;;;;5013755;28;20458;-79
2022/05/19 02:04:29;;;;;;;3.83;2.90;;;13.20;69.10;;;;;;5014556;28;19933;-78
2022/05/19 02:07:05;;;;;;;4.00;3.00;;;13.10;70.00;;;;;;5003593;28;20050;-80
2022/05/19 02:09:37;;;;;;;6.10;3.25;;;13.00;73.30;;;;;;5013268;28;20085;-80
2022/05/19 02:12:05;;;;;;;6.18;3.30;;;13.00;74.40;;;;;;5014781;28;20053;-80
2022/05/19 02:14:34;;;;;;;5.57;3.17;;;12.70;76.00;;;;;;5014223;28;20042;-80
2022/05/19 02:17:07;;;;;;;5.50;3.45;;;12.50;78.00;;;;;;5012944;28;20073;-79
2022/05/19 02:19:42;;;;;;;6.82;3.22;;;12.40;78.60;;;;;;5012718;28;20042;-79
2022/05/19 02:22:14;;;;;;;6.03;3.40;;;12.10;80.60;;;;;;5012328;28;20121;-79
2022/05/19 02:24:47;;;;;;;5.65;3.05;;;12.30;80.50;;;;;;5011506;28;20443;-78
2022/05/19 02:27:33;;;;;;;8.85;3.33;;;11.90;81.80;;;;;;5011624;28;20468;-78
2022/05/19 02:30:03;;;;;;;4.65;2.90;;;11.80;83.20;;;;;;5011419;28;20042;-76
2022/05/19 02:32:30;;;;;;;3.70;2.90;;;11.60;83.90;;;;;;5011854;28;20738;-77
2022/05/19 02:34:58;;;;;;;4.28;2.95;;;11.70;84.60;;;;;;5012653;28;20046;-78
2022/05/19 02:37:25;;;;;;;4.97;3.22;;;12.00;84.70;;;;;;5013979;28;20045;-78
2022/05/19 02:39:52;;;;;;;5.90;3.22;;;12.10;85.70;;;;;;5014110;28;20748;-78
2022/05/19 02:42:19;;;;;;;4.35;3.00;;;12.10;85.70;;;;;;5014377;28;20130;-78
2022/05/19 02:44:47;;;;;;;4.88;3.25;;;11.30;90.00;;;;;;5013875;28;20113;-78
2022/05/19 02:47:14;;;;;;;3.83;3.05;;;11.40;91.00;;;;;;5013671;28;20078;-79
2022/05/19 02:49:41;;;;;;;3.58;3.10;;;11.20;92.00;;;;;;5009342;28;20430;-80
2022/05/19 02:52:09;;;;;;;5.70;3.60;;;11.20;92.40;;;;;;5012358;28;20046;-78
2022/05/19 02:54:36;;;;;;;6.28;3.10;;;11.80;92.60;;;;;;5013352;28;20050;-77
2022/05/19 02:57:04;;;;;;;3.92;3.45;;;12.20;92.50;;;;;;5014041;28;20038;-77
2022/05/19 02:59:31;;;;;;;5.65;4.28;;;12.20;92.80;;;;;;5013484;28;20380;-78
2022/05/19 03:01:58;;;;;;;9.23;3.55;;;12.00;92.90;;;;;;5013288;28;20092;-77
2022/05/19 03:04:26;;;;;;;4.40;3.33;;;11.80;94.10;;;;;;5013478;28;20411;-79
2022/05/19 03:06:53;;;;;;;5.68;3.10;;;11.60;94.90;;;;;;5013078;28;20450;-80
2022/05/19 03:09:23;;;;;;;6.97;3.58;;;11.70;96.00;;;;;;5012154;28;20060;-79
2022/05/19 03:11:51;;;;;;;5.93;3.27;;;11.80;96.00;;;;;;5013375;28;20108;-80
2022/05/19 03:14:19;;;;;;;5.45;3.20;;;12.10;96.40;;;;;;5013068;28;20614;-78
2022/05/19 03:16:46;;;;;;;7.03;3.65;;;11.80;96.80;;;;;;5013060;28;20050;-79
2022/05/19 03:19:16;;;;;;;5.43;3.60;;;11.70;96.80;;;;;;5013475;28;20074;-80
2022/05/19 03:21:43;;;;;;;5.47;3.72;;;11.80;96.30;;;;;;5013064;28;20447;-81
2022/05/19 03:24:10;;;;;;;4.00;3.20;;;12.00;97.20;;;;;;5013135;28;20065;-83
2022/05/19 03:26:38;;;;;;;5.55;3.40;;;11.80;98.20;;;;;;5011912;28;20541;-82
2022/05/19 03:29:06;;;;;;;8.90;3.67;;;12.00;98.60;;;;;;4995316;28;20526;-80
2022/05/19 03:31:34;;;;;;;6.63;3.50;;;11.90;98.50;;;;;;5011987;28;20064;-78
2022/05/19 03:34:03;;;;;;;8.52;3.58;;;12.10;98.50;;;;;;5013096;28;20555;-79
2022/05/19 03:36:30;;;;;;;4.50;3.30;;;12.00;98.40;;;;;;5012460;28;20052;-79
2022/05/19 03:38:58;;;;;;;6.45;3.40;;;12.00;99.30;;;;;;5012894;28;20042;-80
2022/05/19 03:41:25;;;;;;;4.72;3.08;;;12.00;99.50;;;;;;5013047;28;20074;-80
2022/05/19 03:43:53;;;;;;;8.90;3.92;;;12.10;99.80;;;;;;5012599;28;20046;-80
2022/05/19 03:46:20;;;;;;;7.22;3.72;;;12.00;99.90;;;;;;5012409;28;20058;-81
2022/05/19 03:48:47;;;;;;;5.30;3.35;;;12.10;99.90;;;;;;5012683;28;20041;-80
2022/05/19 03:51:23;;;;;;;9.13;3.33;;;12.20;99.90;;;;;;5011330;28;20627;-81
2022/05/19 03:53:51;;;;;;;5.53;3.47;;;12.30;99.40;;;;;;5012315;28;20107;-79
2022/05/19 03:56:20;;;;;;;5.22;3.10;;;12.20;99.40;;;;;;5012685;28;20073;-79
2022/05/19 03:58:48;;;;;;;6.82;3.40;;;12.20;99.90;;;;;;5012550;28;20627;-77
2022/05/19 04:01:16;;;;;;;9.55;3.65;;;12.30;99.80;;;;;;5010966;28;20049;-78
2022/05/19 04:03:44;;;;;;;5.13;3.92;;;12.30;99.80;;;;;;5011090;28;20510;-77
2022/05/19 04:06:13;;;;;;;10.63;4.03;;;12.30;99.60;;;;;;5011181;28;20557;-78
2022/05/19 04:08:40;;;;;;;8.60;4.13;;;12.10;99.90;;;;;;5010969;28;20084;-78
2022/05/19 04:11:09;;;;;;;5.97;3.70;;;12.00;99.90;;;;;;5012512;28;20042;-78
2022/05/19 04:13:37;;;;;;;10.02;4.43;;;12.10;99.90;;;;;;5012299;28;20049;-77
2022/05/19 04:16:04;;;;;;;9.30;4.40;;;12.30;99.90;;;;;;5011993;28;20104;-77
2022/05/19 04:18:35;;;;;;;8.65;4.40;;;12.20;99.90;;;;;;5011994;28;20045;-79
2022/05/19 04:21:03;;;;;;;12.98;4.72;;;12.20;99.90;;;;;;5011776;28;20038;-80
2022/05/19 04:23:32;;;;;;;10.48;5.07;;;12.40;99.90;;;;;;5010858;28;20060;-80
2022/05/19 04:25:59;;;;;;;11.55;5.20;;;12.60;99.60;;;;;;5010884;28;20447;-78
2022/05/19 04:28:27;;;;;;;11.07;5.20;;;12.40;99.50;;;;;;5012059;28;20034;-78
2022/05/19 04:30:57;;;;;;;16.70;7.43;;;12.30;99.90;;;;;;5011819;28;20038;-79
2022/05/19 04:33:24;;;;;;;23.65;10.98;;;12.30;99.80;;;;;;4994905;28;20053;-82
2022/05/19 04:35:52;;;;;;;18.67;8.05;;;12.60;99.40;;;;;;5010568;28;20406;-79
2022/05/19 04:38:20;;;;;;;20.45;11.95;;;12.60;99.40;;;;;;5010448;28;20057;-80
2022/05/19 04:40:49;;;;;;;69.57;40.63;;;13.00;99.90;;;;;;5011437;28;20499;-78
2022/05/19 04:43:22;;;;;;;19.27;11.85;;;13.10;99.90;;;;;;5010476;28;20415;-78
2022/05/19 04:45:55;;;;;;;10.95;5.78;;;12.80;99.80;;;;;;5011593;28;20047;-78
2022/05/19 04:48:23;;;;;;;98.82;60.50;;;12.50;99.90;;;;;;5011879;28;20042;-80
2022/05/19 04:50:53;;;;;;;92.85;52.45;;;12.80;99.90;;;;;;5010392;28;20487;-82
2022/05/19 04:53:20;;;;;;;83.30;48.22;;;12.80;99.80;;;;;;5011454;28;20037;-81
2022/05/19 04:55:49;;;;;;;44.75;26.35;;;12.90;99.90;;;;;;5011666;28;20615;-79
2022/05/19 04:58:17;;;;;;;44.92;25.15;;;13.20;99.50;;;;;;5011438;28;20073;-80
2022/05/19 05:00:47;;;;;;;21.40;10.90;;;13.20;99.20;;;;;;5010516;28;20049;-79
2022/05/19 05:03:15;;;;;;;10.57;5.20;;;12.90;98.10;;;;;;5010619;28;20092;-79
2022/05/19 05:05:42;;;;;;;8.70;4.93;;;12.90;98.40;;;;;;5011432;28;20034;-77
2022/05/19 05:08:12;;;;;;;8.40;4.25;;;12.80;98.70;;;;;;5010164;28;20077;-80
2022/05/19 05:10:41;;;;;;;7.32;4.18;;;12.90;98.70;;;;;;5026506;28;20894;-78
2022/05/19 05:13:11;;;;;;;10.20;4.40;;;13.10;98.90;;;;;;5010473;28;20458;-78
2022/05/19 05:15:38;;;;;;;7.57;4.10;;;13.20;98.70;;;;;;5014587;28;20071;-80
2022/05/19 05:18:06;;;;;;;11.95;4.75;;;13.30;98.70;;;;;;5015258;28;20050;-81
2022/05/19 05:20:36;;;;;;;10.52;4.88;;;13.40;98.60;;;;;;5015135;28;20121;-80
2022/05/19 05:23:04;;;;;;;7.70;4.72;;;13.40;98.40;;;;;;5013917;28;20046;-82
2022/05/19 05:25:31;;;;;;;7.10;4.15;;;13.20;98.40;;;;;;5014579;28;20092;-80
2022/05/19 05:28:03;;;;;;;10.32;4.30;;;13.20;97.90;;;;;;4997950;28;20046;-82
2022/05/19 05:30:34;;;;;;;9.82;4.93;;;13.30;97.70;;;;;;5013122;28;20053;-79
2022/05/19 05:33:07;;;;;;;8.85;4.65;;;13.40;98.00;;;;;;5028509;28;20096;-82
2022/05/19 05:35:34;;;;;;;11.02;4.75;;;13.40;97.70;;;;;;5013233;28;20038;-79
2022/05/19 05:38:02;;;;;;;9.07;5.05;;;13.50;97.80;;;;;;5011853;28;20474;-83
2022/05/19 05:40:30;;;;;;;10.75;4.60;;;13.60;97.60;;;;;;5012120;28;20046;-82
2022/05/19 05:43:07;;;;;;;8.00;3.83;;;13.60;97.20;;;;;;5013155;28;20065;-82
2022/05/19 05:45:35;;;;;;;9.98;4.35;;;13.60;97.00;;;;;;5013968;28;20483;-82
2022/05/19 05:48:04;;;;;;;10.60;4.20;;;13.60;95.50;;;;;;5014261;28;20053;-82
2022/05/19 05:50:32;;;;;;;12.20;4.32;;;13.80;94.60;;;;;;5013366;28;20394;-82
2022/05/19 05:52:59;;;;;;;8.95;4.32;;;13.90;94.10;;;;;;5013292;28;20045;-80
2022/05/19 05:55:28;;;;;;;10.63;4.65;;;13.90;93.90;;;;;;5013064;28;20049;-82
2022/05/19 05:57:56;;;;;;;13.77;4.00;;;14.00;93.80;;;;;;5014457;28;20037;-79
2022/05/19 06:00:22;;;;;;;7.38;4.47;;;14.10;93.30;;;;;;5014213;28;20026;-80
2022/05/19 06:02:50;;;;;;;13.23;4.75;;;14.10;93.10;;;;;;5014115;28;20118;-80
2022/05/19 06:05:19;;;;;;;8.68;4.72;;;14.00;93.10;;;;;;5014048;28;20038;-80
2022/05/19 06:07:47;;;;;;;11.37;5.10;;;14.00;93.40;;;;;;5014178;28;20072;-79
2022/05/19 06:10:18;;;;;;;8.52;4.88;;;14.00;93.00;;;;;;5014126;28;20307;-80
2022/05/19 06:12:45;;;;;;;11.18;4.30;;;14.30;93.00;;;;;;5013036;28;20041;-81
2022/05/19 06:15:14;;;;;;;9.80;4.40;;;14.30;92.70;;;;;;4996642;28;20570;-83
2022/05/19 06:17:45;;;;;;;11.90;4.80;;;14.50;92.60;;;;;;5013990;28;20117;-80
2022/05/19 06:20:15;;;;;;;9.20;4.78;;;14.50;92.50;;;;;;5012835;28;20522;-82
2022/05/19 06:22:44;;;;;;;7.63;4.45;;;14.30;92.70;;;;;;5013325;28;20109;-81
2022/05/19 06:25:18;;;;;;;14.68;5.53;;;14.30;93.50;;;;;;5014017;28;20057;-83
2022/05/19 06:27:46;;;;;;;14.85;5.20;;;14.50;93.50;;;;;;5012722;28;20034;-81
2022/05/19 06:30:14;;;;;;;10.23;4.70;;;14.60;93.10;;;;;;5029493;28;20050;-82
2022/05/19 06:32:47;;;;;;;10.45;5.47;;;14.60;93.40;;;;;;5013348;28;20077;-82
2022/05/19 06:35:17;;;;;;;8.85;4.68;;;14.50;92.70;;;;;;5012611;28;20065;-77
2022/05/19 06:37:47;;;;;;;6.90;4.38;;;14.60;93.10;;;;;;5012664;28;20395;-82
2022/05/19 06:40:15;;;;;;;6.05;3.80;;;14.70;92.70;;;;;;5013877;28;20140;-83
2022/05/19 06:42:44;;;;;;;11.88;4.28;;;14.60;92.10;;;;;;5013195;28;20034;-79
2022/05/19 06:45:17;;;;;;;10.55;4.45;;;14.50;92.10;;;;;;5013635;28;20041;-80
2022/05/19 06:47:44;;;;;;;7.72;4.05;;;14.80;92.70;;;;;;5011970;28;20054;-82
2022/05/19 06:50:13;;;;;;;10.52;4.07;;;14.90;92.30;;;;;;5013388;28;20046;-80
2022/05/19 06:53:03;;;;;;;9.63;4.32;;;14.90;91.30;;;;;;5013460;28;20070;-83
2022/05/19 06:55:36;;;;;;;8.27;4.00;;;14.90;91.60;;;;;;5013468;28;20042;-83
2022/05/19 06:58:03;;;;;;;9.52;4.05;;;15.00;91.70;;;;;;5013652;28;20475;-82
2022/05/19 07:00:31;;;;;;;5.55;3.35;;;15.10;91.20;;;;;;5013446;28;20525;-82
2022/05/19 07:03:00;;;;;;;10.40;3.72;;;15.00;89.10;;;;;;5012058;28;20065;-83
2022/05/19 07:05:31;;;;;;;5.13;3.05;;;15.20;89.60;;;;;;5012091;28;20125;-81
2022/05/19 07:07:58;;;;;;;6.03;3.17;;;15.30;88.30;;;;;;5011969;28;20057;-82
2022/05/19 07:10:29;;;;;;;7.50;3.40;;;15.40;87.30;;;;;;5013170;28;20046;-82
2022/05/19 07:12:58;;;;;;;5.93;3.50;;;15.30;85.90;;;;;;5012936;28;20042;-81
2022/05/19 07:15:29;;;;;;;8.98;3.17;;;15.30;86.50;;;;;;5012950;28;20064;-75
2022/05/19 07:17:57;;;;;;;5.47;3.30;;;15.50;87.00;;;;;;5011901;28;20042;-76
2022/05/19 07:23:18;;;;;;;5.50;3.13;;;15.60;83.40;;;;;;5011667;28;20069;-83
2022/05/19 07:25:47;;;;;;;8.52;3.10;;;15.70;78.40;;;;;;5011857;28;20115;-84
2022/05/19 07:28:15;;;;;;;8.40;3.17;;;15.70;76.40;;;;;;5012829;28;20042;-82
2022/05/19 07:30:46;;;;;;;7.60;3.47;;;15.80;78.20;;;;;;5012781;28;20113;-80
2022/05/19 07:33:17;;;;;;;8.63;3.72;;;15.80;79.10;;;;;;5028057;28;20049;-83
2022/05/19 07:35:49;;;;;;;7.32;3.10;;;15.90;79.80;;;;;;5011702;28;20140;-79
2022/05/19 07:38:17;;;;;;;9.77;3.90;;;16.00;79.20;;;;;;4994828;28;20037;-83
2022/05/19 07:40:46;;;;;;;7.30;3.75;;;16.20;76.40;;;;;;5027765;28;20168;-81
2022/05/19 07:46:01;;;;;;;8.32;4.25;;;16.40;75.50;;;;;;5012002;28;20058;-78
2022/05/19 07:48:29;;;;;;;8.40;3.67;;;16.50;75.10;;;;;;5012101;28;20128;-83
2022/05/19 07:50:59;;;;;;;9.68;4.00;;;16.50;75.10;;;;;;5011523;28;20137;-79
2022/05/19 07:53:27;;;;;;;8.80;3.85;;;16.40;72.80;;;;;;4994832;28;20137;-82
2022/05/19 07:55:55;;;;;;;8.05;3.92;;;16.40;72.30;;;;;;5010960;28;20042;-81
2022/05/19 07:58:23;;;;;;;9.32;3.92;;;16.20;72.30;;;;;;5010606;28;20114;-78
2022/05/19 08:00:52;;;;;;;8.85;4.40;;;16.40;73.30;;;;;;4994824;28;20108;-82
2022/05/19 08:03:22;;;;;;;13.30;4.13;;;16.50;72.50;;;;;;5011136;28;20053;-81
2022/05/19 08:05:52;;;;;;;12.13;3.88;;;16.50;71.00;;;;;;5011152;28;20069;-82
2022/05/19 08:08:21;;;;;;;9.27;3.70;;;16.50;69.20;;;;;;5012279;28;20042;-83
2022/05/19 08:10:57;;;;;;;6.00;3.60;;;16.70;67.20;;;;;;5011130;28;20581;-82
2022/05/19 08:16:13;;;;;;;7.57;2.97;;;17.00;65.20;;;;;;5011983;28;20046;-83
2022/05/19 08:18:43;;;;;;;9.88;2.70;;;17.00;61.70;;;;;;5026926;28;20499;-81
2022/05/19 08:21:12;;;;;;;4.93;2.53;;;16.80;60.60;;;;;;5012038;28;20084;-80
2022/05/19 08:23:47;;;;;;;9.13;2.67;;;17.00;60.80;;;;;;5011004;28;20096;-82
2022/05/19 08:26:14;;;;;;;5.90;2.90;;;17.00;62.00;;;;;;5012252;28;20044;-81
2022/05/19 08:28:46;;;;;;;6.22;2.80;;;17.10;62.30;;;;;;5010858;28;20065;-79
2022/05/19 08:31:31;;;;;;;11.98;2.85;;;17.20;62.10;;;;;;5011742;28;20377;-78
2022/05/19 08:33:58;;;;;;;6.90;2.95;;;17.30;61.70;;;;;;5010437;28;20127;-82
2022/05/19 08:36:26;;;;;;;6.88;2.60;;;17.40;61.50;;;;;;5010417;28;20054;-82
2022/05/19 08:38:53;;;;;;;5.97;2.38;;;17.40;61.20;;;;;;5010248;28;20466;-83
2022/05/19 08:41:35;;;;;;;5.35;2.20;;;17.50;60.80;;;;;;5010270;28;20100;-79
2022/05/19 08:44:14;;;;;;;3.78;2.20;;;17.60;58.50;;;;;;5010328;28;20309;-83
2022/05/19 08:46:45;;;;;;;5.65;2.25;;;17.60;55.80;;;;;;5010196;28;20058;-79
2022/05/19 08:49:15;;;;;;;;;;;17.50;57.30;;;;;;5011440;28;20078;-81
2022/05/19 08:51:53;;;;;;;6.45;2.55;;;17.50;57.50;;;;;;5015171;28;19963;-79
2022/05/19 08:54:25;;;;;;;6.20;2.63;;;17.60;56.40;;;;;;5030668;28;20410;-76
2022/05/19 08:57:05;;;;;;;4.28;2.13;;;17.70;55.80;;;;;;5015708;28;20125;-77
2022/05/19 08:59:43;;;;;;;4.15;1.90;;;17.80;56.70;;;;;;5015557;28;20088;-80
2022/05/19 09:02:13;;;;;;;3.80;2.20;;;17.60;54.80;;;;;;5019155;28;20041;-77
2022/05/19 09:04:41;;;;;;;4.82;2.20;;;17.70;55.00;;;;;;5017135;28;20041;-80
2022/05/19 09:10:26;;;;;;;3.72;1.90;;;18.10;54.10;;;;;;5035008;28;20041;-82
2022/05/19 09:13:07;;;;;;;4.05;1.90;;;18.10;52.70;;;;;;5035473;28;20410;-80
2022/05/19 09:15:35;;;;;;;;;;;18.10;53.20;;;;;;5035508;28;20045;-80
2022/05/19 09:18:35;;;;;;;3.13;1.80;;;18.00;52.10;;;;;;5033106;28;19957;-81
2022/05/19 09:21:05;;;;;;;6.88;2.10;;;18.10;51.90;;;;;;5031564;28;20446;-78
2022/05/19 09:23:35;;;;;;;4.85;1.80;;;18.20;52.20;;;;;;5031599;28;20068;-77
2022/05/19 09:26:46;;;;;;;5.13;2.38;;;18.10;51.30;;;;;;5029706;28;20090;-75
2022/05/19 09:29:36;;;;;;;6.72;2.70;;;18.20;52.20;;;;;;5031791;28;20041;-77
2022/05/19 09:32:14;;;;;;;3.40;2.25;;;18.60;53.30;;;;;;5034218;28;20041;-79
2022/05/19 09:35:20;;;;;;;5.45;2.55;;;18.70;51.80;;;;;;5032728;28;20037;-81
2022/05/19 09:38:13;;;;;;;8.30;2.40;;;18.60;53.90;;;;;;5033821;28;20466;-80
2022/05/19 09:40:46;;;;;;;5.28;2.78;;;18.60;54.50;;;;;;5017274;28;20549;-82
2022/05/19 09:46:50;;;;;;;4.82;2.42;;;19.40;56.30;;;;;;5047688;28;20046;-79
2022/05/19 09:49:31;;;;;;;4.53;2.45;;;19.50;54.40;;;;;;5034273;28;20657;-80
2022/05/19 09:52:00;;;;;;;7.65;2.88;;;19.50;54.70;;;;;;5034525;28;20402;-79
2022/05/19 09:54:31;;;;;;;5.03;2.53;;;19.20;53.30;;;;;;5033368;28;20034;-78
2022/05/19 09:57:10;;;;;;;4.55;2.40;;;19.30;54.40;;;;;;5032674;28;20383;-76
2022/05/19 09:59:48;;;;;;;6.38;2.25;;;19.30;53.50;;;;;;5033048;28;21463;-79
2022/05/19 10:02:38;;;;;;;6.28;2.30;;;19.20;54.00;;;;;;5032151;28;20085;-78
2022/05/19 10:05:39;;;;;;;4.35;2.10;;;19.40;54.70;;;;;;5023808;28;20045;-79
2022/05/19 10:08:19;;;;;;;7.10;3.70;;;19.60;53.50;;;;;;5016025;28;20780;-79
2022/05/19 10:11:00;;;;;;;;;;;19.90;54.00;;;;;;5028595;28;20069;-78
2022/05/19 10:13:49;;;;;;;11.13;2.33;;;19.70;53.30;;;;;;5027834;28;19959;-76
2022/05/19 10:17:03;;;;;;;8.00;2.15;;;19.70;53.30;;;;;;5014820;28;20045;-87
2022/05/19 10:19:49;;;;;;;6.35;2.30;;;20.20;55.20;;;;;;5032436;28;20147;-84
2022/05/19 10:22:59;;;;;;;5.72;2.22;;;20.10;54.00;;;;;;5032027;28;20124;-80
2022/05/19 10:25:42;;;;;;;4.40;2.33;;;20.20;54.70;;;;;;5032504;28;20041;-87
2022/05/19 10:31:41;;;;;;;5.85;2.50;;;20.20;53.10;;;;;;5032557;28;20041;-80
2022/05/19 10:35:02;;;;;;;6.43;2.45;;;20.10;53.20;;;;;;5031738;28;20506;-82
2022/05/19 10:38:03;;;;;;;5.70;2.28;;;20.10;52.30;;;;;;5024598;28;20072;-77
2022/05/19 10:41:02;;;;;;;4.28;2.28;;;20.20;52.20;;;;;;5033498;28;20037;-76
2022/05/19 10:44:04;;;;;;;8.32;2.30;;;20.10;51.70;;;;;;5033562;28;20071;-83
2022/05/19 10:47:01;;;;;;;5.70;2.20;;;20.30;51.90;;;;;;5033530;28;20576;-80
2022/05/19 10:49:37;;;;;;;6.68;2.20;;;20.70;52.60;;;;;;5033164;28;20416;-74
2022/05/19 10:52:43;;;;;;;13.10;2.90;;;20.90;52.00;;;;;;5033244;28;20045;-78
2022/05/19 10:55:21;;;;;;;4.30;2.00;;;20.90;52.90;;;;;;4985154;28;20058;-78
2022/05/19 10:58:09;;;;;;;4.30;2.10;;;20.90;51.70;;;;;;4972145;28;20125;-73
2022/05/19 11:01:05;;;;;;;6.32;2.80;;;20.90;50.90;;;;;;5000819;28;20057;-79
2022/05/19 11:03:47;;;;;;;6.15;2.50;;;21.30;51.10;;;;;;5032615;28;20051;-76
2022/05/19 11:06:52;;;;;;;7.78;4.47;;;21.10;50.70;;;;;;5029079;28;20556;-79
2022/05/19 11:09:29;;;;;;;9.20;2.83;;;21.10;49.90;;;;;;5031600;28;20046;-75
2022/05/19 11:12:24;;;;;;;16.33;3.95;;;21.10;49.90;;;;;;5011471;28;20123;-78
2022/05/19 11:15:09;;;;;;;6.10;2.40;;;21.30;51.70;;;;;;5012304;28;20584;-79
2022/05/19 11:17:56;;;;;;;9.77;3.10;;;21.90;49.20;;;;;;5010276;28;20507;-78
2022/05/19 11:20:40;;;;;;;5.65;2.47;;;22.10;51.60;;;;;;5011263;28;20037;-79
2022/05/19 11:23:36;;;;;;;5.55;2.55;;;22.20;50.30;;;;;;5011375;28;20041;-81
2022/05/19 11:26:26;;;;;;;6.38;2.67;;;21.90;48.60;;;;;;5000920;28;20121;-79
2022/05/19 11:29:12;;;;;;;5.97;2.55;;;21.90;48.90;;;;;;5010185;28;20679;-76
2022/05/19 11:32:08;;;;;;;5.35;2.40;;;22.10;48.10;;;;;;5010614;28;20141;-74
2022/05/19 11:35:05;;;;;;;5.97;2.20;;;22.40;47.70;;;;;;5005162;28;20054;-75
2022/05/19 11:37:36;;;;;;;4.65;2.33;;;22.20;46.90;;;;;;5011130;28;20046;-74
2022/05/19 11:40:20;;;;;;;3.67;1.90;;;22.50;48.80;;;;;;5012994;28;20042;-72
2022/05/19 11:42:59;;;;;;;6.75;2.10;;;22.30;46.40;;;;;;5012320;28;20078;-75
2022/05/19 11:45:50;;;;;;;5.15;2.10;;;22.20;45.90;;;;;;5012614;28;20136;-78
2022/05/19 11:57:37;;;;;;;6.85;2.55;;;22.60;45.90;;;;;;5011034;28;20376;-78
2022/05/19 12:00:08;;;;;;;3.67;1.80;;;22.40;45.60;;;;;;5011382;28;20060;-78
2022/05/19 12:03:04;;;;;;;4.20;2.08;;;22.50;45.60;;;;;;5011079;28;20403;-79
2022/05/19 12:06:13;;;;;;;4.65;2.30;;;22.90;46.40;;;;;;5025014;28;20137;-78
2022/05/19 12:09:00;;;;;;;2.50;1.70;;;22.70;45.80;;;;;;5012764;28;20038;-75
2022/05/19 12:11:45;;;;;;;5.00;2.20;;;22.70;45.40;;;;;;5012552;28;20515;-76
2022/05/19 12:14:24;;;;;;;4.05;2.00;;;22.80;45.80;;;;;;5027912;28;20149;-79
2022/05/19 12:16:57;;;;;;;4.57;1.90;;;22.60;45.60;;;;;;5012786;28;20038;-81
2022/05/19 12:19:55;;;;;;;4.00;1.88;;;22.60;45.40;;;;;;4994959;28;20424;-84
2022/05/19 12:22:35;;;;;;;9.50;2.22;;;22.60;45.10;;;;;;5010649;28;20056;-82
2022/05/19 12:25:20;;;;;;;5.57;1.80;;;22.50;45.90;;;;;;5012302;28;20054;-79
2022/05/19 12:28:28;;;;;;;4.78;2.20;;;22.40;46.40;;;;;;5027741;28;20042;-76
2022/05/19 12:34:02;;;;;;;7.40;2.00;;;23.20;46.10;;;;;;5027359;28;20041;-77
2022/05/19 12:37:05;;;;;;;6.03;1.83;;;23.10;45.00;;;;;;5011822;28;20717;-83
2022/05/19 12:39:47;;;;;;;5.53;1.92;;;23.10;44.90;;;;;;5012153;28;20124;-81
2022/05/19 12:42:40;;;;;;;6.75;2.08;;;23.20;45.00;;;;;;5010815;28;20058;-80
2022/05/19 12:45:18;;;;;;;4.90;2.10;;;23.50;45.10;;;;;;5010669;28;20057;-76
2022/05/19 12:47:55;;;;;;;8.05;3.47;;;23.60;45.40;;;;;;5011919;28;20511;-83
2022/05/19 12:50:25;;;;;;;5.28;2.30;;;24.00;45.80;;;;;;5011813;28;20121;-76
2022/05/19 12:52:56;;;;;;;4.32;1.95;;;24.40;45.70;;;;;;5011733;28;20046;-81
2022/05/19 12:55:23;;;;;;;5.18;2.00;;;24.70;45.30;;;;;;5012205;28;20104;-86
2022/05/19 12:57:53;;;;;;;6.38;2.10;;;24.40;45.00;;;;;;5013266;28;20510;-79
2022/05/19 13:00:23;;;;;;;11.30;2.70;;;24.10;45.00;;;;;;5013172;28;20084;-79
2022/05/19 13:03:13;;;;;;;4.93;1.95;;;24.00;45.20;;;;;;4994870;28;20056;-76
2022/05/19 13:06:00;;;;;;;10.67;2.00;;;24.20;45.50;;;;;;5012050;28;20042;-73
2022/05/19 13:08:34;;;;;;;3.03;1.58;;;24.10;45.20;;;;;;5010484;28;20116;-83
2022/05/19 13:11:15;;;;;;;5.10;2.10;;;23.60;45.30;;;;;;5012254;28;20050;-76
2022/05/19 13:13:53;;;;;;;7.43;2.53;;;23.90;45.60;;;;;;5011836;28;20546;-78
2022/05/19 13:16:25;;;;;;;9.23;2.08;;;24.40;46.00;;;;;;5012249;28;20108;-73
2022/05/19 13:18:58;;;;;;;3.13;1.70;;;24.70;45.70;;;;;;5011153;28;20434;-82
2022/05/19 13:21:37;;;;;;;4.60;1.73;;;24.90;45.60;;;;;;4994387;28;20046;-81
2022/05/19 13:24:09;;;;;;;7.93;2.40;;;24.50;45.20;;;;;;5010344;28;20054;-78
2022/05/19 13:26:42;;;;;;;6.40;2.03;;;23.70;47.20;;;;;;5009867;28;20065;-78
2022/05/19 13:32:03;;;;;;;;;;;23.70;47.00;;;;;;5012229;28;20430;-75
2022/05/19 13:34:39;;;;;;;8.75;1.92;;;24.20;47.90;;;;;;5010637;28;20016;-75
2022/05/19 13:37:07;;;;;;;3.35;1.77;;;24.70;46.60;;;;;;5030008;28;20148;-73
2022/05/19 13:39:35;;;;;;;8.80;2.33;;;25.20;46.00;;;;;;5013983;28;20435;-78
2022/05/19 13:42:09;;;;;;;5.45;2.03;;;24.70;45.70;;;;;;5014787;28;20115;-76
2022/05/19 13:44:49;;;;;;;5.55;1.80;;;24.90;45.90;;;;;;5013460;28;20045;-77
2022/05/19 13:47:22;;;;;;;4.28;2.05;;;25.50;46.00;;;;;;5014472;28;20124;-81
2022/05/19 13:50:03;;;;;;;3.50;1.90;;;25.60;45.30;;;;;;5013727;28;20074;-72
2022/05/19 13:52:37;;;;;;;7.45;2.30;;;25.80;45.00;;;;;;5013710;28;20048;-73
2022/05/19 13:55:19;;;;;;;5.57;2.00;;;25.50;45.00;;;;;;5014726;28;20125;-77
2022/05/19 13:57:51;;;;;;;5.78;1.90;;;25.50;45.10;;;;;;5014602;28;20128;-75
2022/05/19 14:00:19;;;;;;;6.25;2.15;;;25.30;44.60;;;;;;5014793;28;20439;-77